createdAt,value
2022-10-24T00:00:17.895Z,68.83
2022-10-24T00:01:22.360Z,69.09
2022-10-24T00:02:24.603Z,69.26
2022-10-24T00:03:26.327Z,69.30
2022-10-24T00:04:27.879Z,69.10
2022-10-24T00:05:29.482Z,69.24
2022-10-24T00:06:33.833Z,69.33
2022-10-24T00:07:35.418Z,68.98
2022-10-24T00:08:37.848Z,69.22
2022-10-24T00:09:39.425Z,69.03
2022-10-24T00:10:43.886Z,69.56
2022-10-24T00:11:45.498Z,70.67
2022-10-24T00:12:47.380Z,71.50
2022-10-24T00:13:50.364Z,71.80
2022-10-24T00:14:51.989Z,71.61
2022-10-24T00:15:53.562Z,71.82
2022-10-24T00:16:55.272Z,71.62
2022-10-24T00:17:56.963Z,71.57
2022-10-24T00:18:58.646Z,72.02
2022-10-24T00:20:02.705Z,72.20
2022-10-24T00:21:07.571Z,72.78
2022-10-24T00:22:09.394Z,73.39
2022-10-24T00:23:13.618Z,74.09
2022-10-24T00:24:15.562Z,73.53
2022-10-24T00:25:17.272Z,73.18
2022-10-24T00:26:19.032Z,73.50
2022-10-24T00:27:20.649Z,73.71
2022-10-24T00:28:22.260Z,74.19
2022-10-24T00:29:24.746Z,74.30
2022-10-24T00:30:26.534Z,74.18
2022-10-24T00:31:28.550Z,73.82
2022-10-24T00:32:30.090Z,73.23
2022-10-24T00:33:31.732Z,72.96
2022-10-24T00:34:33.373Z,72.40
2022-10-24T00:35:34.980Z,72.45
2022-10-24T00:36:36.634Z,72.43
2022-10-24T00:37:38.286Z,72.41
2022-10-24T00:38:39.942Z,71.48
2022-10-24T00:39:41.503Z,71.42
2022-10-24T00:40:43.650Z,70.84
2022-10-24T00:41:45.442Z,70.63
2022-10-24T00:42:48.560Z,70.85
2022-10-24T00:43:50.534Z,70.14
2022-10-24T00:44:53.578Z,69.54
2022-10-24T00:45:56.809Z,70.05
2022-10-24T00:47:05.143Z,69.75
2022-10-24T00:48:35.562Z,69.10
2022-10-24T00:50:13.311Z,68.96
2022-10-24T00:51:24.775Z,68.89
2022-10-24T00:52:33.075Z,68.86
2022-10-24T00:53:40.748Z,69.14
2022-10-24T00:54:43.164Z,68.75
2022-10-24T00:55:48.346Z,68.80
2022-10-24T00:57:00.105Z,69.13
2022-10-24T00:58:02.733Z,69.78
2022-10-24T00:59:07.256Z,69.94
2022-10-24T01:00:20.991Z,71.01
2022-10-24T01:01:25.475Z,71.69
2022-10-24T01:02:27.343Z,72.43
2022-10-24T01:03:31.607Z,73.39
2022-10-24T01:04:33.289Z,73.80
2022-10-24T01:05:54.672Z,74.06
2022-10-24T01:07:11.351Z,73.87
2022-10-24T01:08:42.032Z,74.35
2022-10-24T01:10:06.657Z,74.49
2022-10-24T01:11:23.365Z,74.64
2022-10-24T01:12:38.937Z,74.60
2022-10-24T01:13:57.191Z,73.93
2022-10-24T01:15:22.956Z,74.45
2022-10-24T01:16:34.701Z,74.33
2022-10-24T01:17:48.684Z,73.82
2022-10-24T01:18:58.472Z,73.22
2022-10-24T01:20:26.724Z,72.91
2022-10-24T01:21:40.144Z,72.50
2022-10-24T01:23:19.123Z,72.31
2022-10-24T01:24:49.505Z,72.00
2022-10-24T01:25:50.995Z,71.52
2022-10-24T01:27:09.914Z,71.68
2022-10-24T01:28:16.755Z,71.67
2022-10-24T01:29:32.329Z,71.41
2022-10-24T01:30:43.356Z,70.93
2022-10-24T01:31:57.805Z,70.75
2022-10-24T01:33:15.929Z,70.72
2022-10-24T01:34:29.065Z,70.83
2022-10-24T01:35:52.067Z,70.55
2022-10-24T01:37:08.022Z,70.67
2022-10-24T01:38:14.770Z,70.68
2022-10-24T01:39:20.433Z,71.11
2022-10-24T01:40:55.169Z,70.59
2022-10-24T01:41:58.756Z,70.61
2022-10-24T01:43:08.248Z,70.98
2022-10-24T01:44:25.598Z,71.35
2022-10-24T01:45:34.689Z,70.91
2022-10-24T01:46:44.550Z,70.74
2022-10-24T01:47:53.717Z,70.96
2022-10-24T01:49:05.376Z,71.58
2022-10-24T01:50:11.913Z,71.19
2022-10-24T01:51:17.147Z,71.93
2022-10-24T01:52:20.159Z,71.49
2022-10-24T01:53:25.034Z,72.12
2022-10-24T01:54:28.257Z,72.69
2022-10-24T01:55:32.698Z,72.49
2022-10-24T01:56:34.689Z,72.21
2022-10-24T01:57:36.305Z,72.55
2022-10-24T01:58:37.950Z,72.36
2022-10-24T01:59:43.405Z,72.06
2022-10-24T02:00:47.267Z,72.97
2022-10-24T02:01:49.149Z,73.09
2022-10-24T02:03:04.105Z,74.11
2022-10-24T02:04:11.077Z,73.78
2022-10-24T02:05:17.182Z,73.79
2022-10-24T02:06:35.231Z,74.05
2022-10-24T02:07:40.977Z,74.31
2022-10-24T02:08:48.880Z,74.80
2022-10-24T02:10:00.578Z,75.15
2022-10-24T02:11:06.655Z,74.72
2022-10-24T02:12:10.385Z,75.15
2022-10-24T02:13:19.264Z,74.65
2022-10-24T02:14:28.205Z,74.86
2022-10-24T02:15:33.884Z,74.94
2022-10-24T02:16:35.713Z,74.49
2022-10-24T02:17:39.559Z,74.36
2022-10-24T02:18:41.609Z,74.34
2022-10-24T02:19:44.473Z,74.04
2022-10-24T02:20:54.840Z,74.24
2022-10-24T02:22:02.189Z,74.16
2022-10-24T02:23:13.277Z,73.67
2022-10-24T02:24:22.161Z,74.16
2022-10-24T02:25:33.700Z,73.52
2022-10-24T02:26:41.799Z,73.65
2022-10-24T02:27:55.851Z,73.79
2022-10-24T02:29:01.803Z,74.64
2022-10-24T02:30:13.675Z,74.56
2022-10-24T02:31:21.851Z,74.27
2022-10-24T02:32:29.736Z,74.15
2022-10-24T02:33:34.248Z,73.71
2022-10-24T02:34:38.579Z,73.62
2022-10-24T02:35:41.618Z,73.48
2022-10-24T02:36:44.951Z,73.26
2022-10-24T02:37:51.725Z,73.00
2022-10-24T02:38:55.338Z,72.66
2022-10-24T02:39:59.545Z,72.38
2022-10-24T02:41:04.990Z,72.59
2022-10-24T02:42:08.707Z,71.86
2022-10-24T02:43:12.813Z,72.08
2022-10-24T02:44:16.634Z,72.55
2022-10-24T02:45:21.142Z,72.54
2022-10-24T02:46:25.321Z,72.35
2022-10-24T02:47:28.597Z,71.96
2022-10-24T02:48:34.825Z,72.23
2022-10-24T02:49:36.603Z,72.13
2022-10-24T02:50:41.024Z,71.68
2022-10-24T02:51:46.060Z,71.36
2022-10-24T02:52:48.268Z,71.76
2022-10-24T02:53:50.852Z,71.05
2022-10-24T02:54:53.659Z,70.77
2022-10-24T02:55:55.402Z,70.41
2022-10-24T02:57:01.431Z,70.66
2022-10-24T02:58:03.208Z,70.88
2022-10-24T02:59:04.870Z,71.00
2022-10-24T03:00:08.012Z,70.67
2022-10-24T03:01:09.917Z,70.68
2022-10-24T03:02:11.731Z,70.82
2022-10-24T03:03:13.765Z,70.86
2022-10-24T03:04:15.624Z,70.65
2022-10-24T03:05:17.312Z,70.96
2022-10-24T03:06:18.960Z,70.95
2022-10-24T03:07:20.744Z,70.92
2022-10-24T03:08:22.444Z,70.85
2022-10-24T03:09:24.111Z,70.90
2022-10-24T03:10:25.775Z,71.27
2022-10-24T03:11:27.587Z,71.19
2022-10-24T03:12:29.192Z,71.41
2022-10-24T03:13:30.842Z,71.70
2022-10-24T03:14:32.856Z,71.75
2022-10-24T03:15:34.580Z,72.26
2022-10-24T03:16:36.312Z,72.27
2022-10-24T03:17:37.997Z,72.21
2022-10-24T03:18:39.778Z,71.53
2022-10-24T03:19:41.413Z,71.61
2022-10-24T03:20:43.067Z,71.21
2022-10-24T03:21:44.762Z,71.88
2022-10-24T03:22:46.393Z,71.89
2022-10-24T03:23:48.181Z,72.12
2022-10-24T03:24:56.465Z,71.94
2022-10-24T03:25:59.317Z,72.48
2022-10-24T03:27:00.972Z,72.44
2022-10-24T03:28:02.680Z,71.99
2022-10-24T03:29:04.845Z,72.18
2022-10-24T03:30:07.355Z,72.79
2022-10-24T03:31:09.155Z,73.04
2022-10-24T03:32:13.177Z,73.34
2022-10-24T03:33:19.019Z,73.07
2022-10-24T03:34:20.838Z,73.81
2022-10-24T03:35:22.616Z,73.82
2022-10-24T03:36:24.520Z,73.62
2022-10-24T03:37:26.541Z,73.40
2022-10-24T03:38:28.289Z,73.32
2022-10-24T03:39:32.220Z,73.57
2022-10-24T03:40:37.430Z,74.72
2022-10-24T03:41:39.060Z,75.54
2022-10-24T03:42:40.740Z,76.24
2022-10-24T03:43:42.513Z,76.67
2022-10-24T03:44:44.227Z,77.64
2022-10-24T03:45:45.989Z,77.96
2022-10-24T03:46:47.750Z,78.20
2022-10-24T03:47:49.448Z,78.44
2022-10-24T03:48:51.110Z,79.65
2022-10-24T03:49:52.839Z,79.50
2022-10-24T03:50:56.009Z,79.97
2022-10-24T03:51:57.743Z,79.61
2022-10-24T03:53:00.016Z,80.10
2022-10-24T03:54:01.605Z,80.01
2022-10-24T03:55:03.417Z,79.75
2022-10-24T03:56:05.254Z,79.81
2022-10-24T03:57:09.969Z,79.87
2022-10-24T03:58:11.601Z,80.22
2022-10-24T03:59:13.600Z,79.80
2022-10-24T04:00:15.650Z,80.27
2022-10-24T04:01:18.643Z,79.91
2022-10-24T04:02:20.581Z,80.34
2022-10-24T04:03:22.167Z,80.18
2022-10-24T04:04:23.844Z,80.00
2022-10-24T04:05:25.478Z,79.76
2022-10-24T04:06:27.429Z,79.60
2022-10-24T04:07:31.230Z,78.82
2022-10-24T04:08:32.830Z,78.25
2022-10-24T04:09:34.505Z,78.65
2022-10-24T04:10:36.327Z,77.65
2022-10-24T04:11:40.725Z,78.63
2022-10-24T04:12:42.436Z,78.14
2022-10-24T04:13:44.274Z,77.56
2022-10-24T04:14:48.345Z,81.38
2022-10-24T04:15:50.059Z,79.46
2022-10-24T04:16:51.731Z,78.58
2022-10-24T04:17:53.419Z,78.58
2022-10-24T04:18:55.014Z,78.33
2022-10-24T04:19:56.587Z,77.27
2022-10-24T04:20:58.277Z,77.51
2022-10-24T04:22:00.296Z,77.27
2022-10-24T04:23:04.410Z,77.43
2022-10-24T04:24:06.831Z,76.92
2022-10-24T04:25:08.531Z,76.42
2022-10-24T04:26:12.976Z,75.54
2022-10-24T04:27:14.575Z,75.63
2022-10-24T04:28:16.353Z,75.28
2022-10-24T04:29:17.989Z,75.09
2022-10-24T04:30:19.683Z,75.16
2022-10-24T04:31:23.518Z,75.42
2022-10-24T04:32:25.580Z,75.49
2022-10-24T04:33:27.164Z,75.13
2022-10-24T04:34:28.729Z,75.54
2022-10-24T04:35:30.609Z,76.29
2022-10-24T04:36:43.051Z,76.50
2022-10-24T04:37:44.636Z,75.74
2022-10-24T04:38:46.273Z,75.83
2022-10-24T04:39:48.142Z,75.66
2022-10-24T04:40:54.293Z,75.02
2022-10-24T04:41:56.039Z,75.54
2022-10-24T04:42:57.665Z,74.96
2022-10-24T04:43:59.506Z,74.99
2022-10-24T04:45:01.106Z,74.60
2022-10-24T04:46:02.744Z,74.73
2022-10-24T04:47:04.444Z,75.42
2022-10-24T04:48:06.448Z,75.62
2022-10-24T04:49:08.091Z,75.45
2022-10-24T04:50:10.179Z,75.57
2022-10-24T04:51:12.068Z,75.33
2022-10-24T04:52:13.798Z,75.53
2022-10-24T04:53:17.333Z,75.59
2022-10-24T04:54:18.985Z,75.18
2022-10-24T04:55:20.605Z,75.27
2022-10-24T04:56:22.928Z,75.45
2022-10-24T04:57:26.926Z,75.90
2022-10-24T04:58:28.636Z,75.33
2022-10-24T04:59:30.234Z,75.81
2022-10-24T05:00:31.948Z,75.33
2022-10-24T05:01:33.702Z,75.02
2022-10-24T05:02:35.520Z,74.23
2022-10-24T05:03:37.252Z,74.67
2022-10-24T05:04:38.954Z,74.74
2022-10-24T05:05:40.902Z,74.68
2022-10-24T05:06:45.022Z,74.45
2022-10-24T05:07:47.494Z,74.37
2022-10-24T05:08:49.272Z,74.43
2022-10-24T05:09:50.903Z,74.25
2022-10-24T05:10:52.997Z,74.25
2022-10-24T05:11:55.846Z,74.17
2022-10-24T05:12:57.651Z,74.20
2022-10-24T05:13:59.936Z,74.81
2022-10-24T05:15:01.516Z,74.83
2022-10-24T05:16:03.540Z,74.36
2022-10-24T05:17:05.081Z,74.35
2022-10-24T05:18:06.830Z,74.12
2022-10-24T05:19:08.507Z,74.71
2022-10-24T05:20:10.636Z,74.00
2022-10-24T05:21:12.605Z,74.79
2022-10-24T05:22:14.144Z,74.55
2022-10-24T05:23:15.873Z,74.72
2022-10-24T05:24:17.507Z,74.96
2022-10-24T05:25:19.439Z,74.56
2022-10-24T05:26:20.964Z,74.64
2022-10-24T05:27:24.852Z,74.82
2022-10-24T05:28:26.419Z,75.01
2022-10-24T05:29:28.001Z,75.46
2022-10-24T05:30:29.562Z,74.97
2022-10-24T05:32:33.811Z,75.13
2022-10-24T05:33:37.553Z,75.93
2022-10-24T05:34:39.381Z,75.29
2022-10-24T05:35:41.860Z,75.25
2022-10-24T05:36:43.703Z,75.38
2022-10-24T05:37:45.438Z,75.70
2022-10-24T05:38:47.065Z,75.31
2022-10-24T05:39:48.655Z,75.02
2022-10-24T05:40:51.540Z,75.56
2022-10-24T05:41:55.298Z,76.37
2022-10-24T05:42:57.210Z,76.94
2022-10-24T05:43:58.940Z,76.56
2022-10-24T05:45:00.492Z,76.93
2022-10-24T05:46:02.118Z,77.28
2022-10-24T05:47:03.756Z,77.57
2022-10-24T05:48:06.093Z,77.18
2022-10-24T05:49:07.794Z,77.26
2022-10-24T05:50:10.562Z,78.35
2022-10-24T05:51:12.157Z,78.33
2022-10-24T05:52:13.704Z,78.54
2022-10-24T05:53:15.396Z,78.51
2022-10-24T05:54:17.306Z,78.65
2022-10-24T05:55:19.131Z,78.67
2022-10-24T05:56:20.716Z,77.88
2022-10-24T05:57:25.397Z,78.73
2022-10-24T05:58:27.631Z,78.46
2022-10-24T05:59:29.302Z,79.11
2022-10-24T06:00:33.893Z,79.43
2022-10-24T06:01:35.658Z,79.58
2022-10-24T06:02:37.328Z,78.77
2022-10-24T06:03:39.625Z,78.61
2022-10-24T06:04:41.185Z,78.86
2022-10-24T06:05:43.101Z,79.08
2022-10-24T06:06:45.422Z,77.91
2022-10-24T06:07:47.753Z,77.45
2022-10-24T06:08:50.191Z,76.31
2022-10-24T06:09:51.778Z,76.41
2022-10-24T06:10:53.701Z,75.42
2022-10-24T06:11:55.311Z,75.90
2022-10-24T06:12:56.884Z,75.25
2022-10-24T06:13:58.582Z,74.94
2022-10-24T06:15:00.883Z,74.90
2022-10-24T06:16:05.782Z,74.84
2022-10-24T06:17:16.644Z,73.67
2022-10-24T06:18:18.275Z,73.17
2022-10-24T06:19:21.813Z,73.65
2022-10-24T06:20:23.499Z,73.21
2022-10-24T06:21:25.153Z,72.97
2022-10-24T06:22:29.657Z,73.28
2022-10-24T06:23:31.905Z,73.21
2022-10-24T06:24:38.207Z,74.02
2022-10-24T06:25:43.229Z,73.31
2022-10-24T06:26:44.941Z,72.36
2022-10-24T06:27:46.513Z,72.01
2022-10-24T06:28:48.093Z,72.61
2022-10-24T06:29:49.694Z,72.62
2022-10-24T06:30:52.536Z,72.72
2022-10-24T06:31:54.197Z,73.18
2022-10-24T06:32:55.747Z,72.83
2022-10-24T06:33:57.577Z,71.70
2022-10-24T06:34:59.180Z,70.87
2022-10-24T06:36:05.630Z,70.88
2022-10-24T06:37:07.192Z,70.50
2022-10-24T06:38:08.935Z,70.60
2022-10-24T06:39:11.645Z,70.83
2022-10-24T06:40:13.309Z,70.54
2022-10-24T06:41:17.265Z,69.30
2022-10-24T06:42:18.885Z,69.34
2022-10-24T06:43:20.821Z,68.76
2022-10-24T06:44:22.851Z,68.51
2022-10-24T06:45:24.773Z,67.56
2022-10-24T06:46:26.325Z,67.54
2022-10-24T06:47:28.002Z,68.15
2022-10-24T06:48:29.524Z,67.79
2022-10-24T06:49:31.072Z,68.60
2022-10-24T06:50:32.622Z,68.84
2022-10-24T06:51:34.585Z,69.30
2022-10-24T06:52:37.355Z,68.91
2022-10-24T06:53:38.907Z,69.06
2022-10-24T06:54:43.619Z,68.63
2022-10-24T06:55:45.167Z,68.08
2022-10-24T06:56:46.767Z,69.22
2022-10-24T06:57:48.376Z,70.40
2022-10-24T06:58:49.942Z,69.58
2022-10-24T06:59:51.482Z,69.51
2022-10-24T07:00:53.124Z,70.07
2022-10-24T07:01:54.878Z,69.70
2022-10-24T07:02:56.471Z,69.45
2022-10-24T07:03:58.042Z,69.29
2022-10-24T07:04:59.611Z,66.86
2022-10-24T07:06:10.375Z,66.80
2022-10-24T07:07:16.778Z,67.40
2022-10-24T07:08:18.450Z,66.87
2022-10-24T07:09:20.396Z,66.20
2022-10-24T07:10:22.097Z,66.78
2022-10-24T07:11:24.707Z,66.63
2022-10-24T07:12:26.692Z,66.06
2022-10-24T07:13:29.696Z,65.62
2022-10-24T07:14:31.261Z,64.58
2022-10-24T07:15:32.999Z,64.56
2022-10-24T07:16:34.689Z,64.02
2022-10-24T07:17:43.844Z,64.21
2022-10-24T07:18:45.422Z,64.47
2022-10-24T07:19:55.152Z,64.67
2022-10-24T07:21:13.025Z,65.15
2022-10-24T07:22:14.637Z,65.82
2022-10-24T07:23:16.262Z,65.36
2022-10-24T07:24:18.211Z,65.20
2022-10-24T07:25:20.989Z,64.46
2022-10-24T07:26:24.975Z,63.80
2022-10-24T07:27:26.736Z,63.80
2022-10-24T07:28:28.581Z,62.81
2022-10-24T07:29:30.225Z,62.36
2022-10-24T07:30:31.886Z,62.02
2022-10-24T07:31:35.914Z,61.06
2022-10-24T07:32:37.472Z,61.15
2022-10-24T07:33:40.294Z,62.07
2022-10-24T07:34:41.908Z,62.62
2022-10-24T07:35:43.483Z,62.56
2022-10-24T07:36:45.077Z,61.29
2022-10-24T07:37:46.924Z,62.95
2022-10-24T07:38:50.163Z,63.34
2022-10-24T07:39:51.740Z,62.07
2022-10-24T07:40:53.415Z,61.36
2022-10-24T07:41:55.037Z,61.33
2022-10-24T07:42:56.594Z,61.84
2022-10-24T07:44:02.542Z,61.43
2022-10-24T07:45:04.488Z,61.39
2022-10-24T07:46:07.704Z,61.00
2022-10-24T07:47:10.134Z,60.85
2022-10-24T07:48:11.997Z,61.80
2022-10-24T07:49:13.569Z,61.35
2022-10-24T07:50:17.311Z,62.49
2022-10-24T07:51:19.616Z,61.81
2022-10-24T07:52:21.181Z,61.84
2022-10-24T07:53:22.677Z,61.15
2022-10-24T07:54:25.730Z,61.26
2022-10-24T07:55:27.425Z,61.88
2022-10-24T07:56:29.033Z,62.80
2022-10-24T07:57:30.618Z,63.06
2022-10-24T07:58:32.179Z,62.88
2022-10-24T07:59:42.603Z,62.33
2022-10-24T08:00:45.637Z,61.90
2022-10-24T08:01:47.513Z,61.16
2022-10-24T08:03:56.805Z,60.67
2022-10-24T08:04:58.613Z,60.24
2022-10-24T08:06:00.545Z,60.02
2022-10-24T08:07:02.100Z,58.80
2022-10-24T08:08:19.991Z,58.63
2022-10-24T08:09:26.615Z,58.17
2022-10-24T08:10:28.235Z,58.12
2022-10-24T08:11:31.409Z,57.71
2022-10-24T08:12:37.945Z,63.16
2022-10-24T08:13:41.683Z,58.39
2022-10-24T08:14:44.327Z,56.54
2022-10-24T08:15:45.860Z,56.65
2022-10-24T08:16:48.748Z,55.75
2022-10-24T08:17:50.293Z,56.95
2022-10-24T08:18:53.721Z,56.89
2022-10-24T08:19:55.316Z,56.21
2022-10-24T08:21:01.013Z,56.89
2022-10-24T08:22:03.671Z,57.21
2022-10-24T08:23:05.288Z,58.09
2022-10-24T08:24:07.197Z,58.67
2022-10-24T08:25:10.184Z,58.33
2022-10-24T08:26:17.674Z,57.42
2022-10-24T08:27:19.266Z,57.32
2022-10-24T08:28:21.008Z,57.01
2022-10-24T08:29:23.501Z,58.09
2022-10-24T08:30:25.083Z,58.02
2022-10-24T08:31:26.824Z,57.50
2022-10-24T08:32:28.411Z,57.24
2022-10-24T08:33:30.724Z,57.06
2022-10-24T08:34:32.637Z,56.66
2022-10-24T08:35:34.212Z,57.11
2022-10-24T08:36:36.305Z,55.27
2022-10-24T08:38:44.726Z,57.83
2022-10-24T08:39:46.291Z,58.87
2022-10-24T08:40:48.979Z,58.18
2022-10-24T08:41:59.402Z,58.24
2022-10-24T08:43:02.015Z,58.14
2022-10-24T08:44:14.419Z,58.13
2022-10-24T08:45:57.527Z,57.82
2022-10-24T08:47:29.151Z,57.84
2022-10-24T08:48:42.136Z,58.17
2022-10-24T08:49:50.481Z,58.35
2022-10-24T08:50:59.104Z,58.79
2022-10-24T08:52:04.661Z,58.95
2022-10-24T08:53:12.646Z,58.02
2022-10-24T08:54:19.553Z,58.11
2022-10-24T08:55:48.678Z,57.62
2022-10-24T08:56:55.337Z,57.17
2022-10-24T08:58:00.941Z,57.06
2022-10-24T08:59:04.475Z,56.95
2022-10-24T09:00:27.796Z,56.30
2022-10-24T09:01:33.474Z,55.48
2022-10-24T09:02:39.808Z,55.87
2022-10-24T09:03:57.557Z,54.60
2022-10-24T09:05:17.386Z,54.49
2022-10-24T09:06:22.313Z,55.48
2022-10-24T09:07:27.932Z,54.94
2022-10-24T09:08:38.546Z,54.90
2022-10-24T09:09:44.417Z,54.81
2022-10-24T09:10:58.104Z,54.65
2022-10-24T09:12:01.296Z,55.18
2022-10-24T09:13:02.961Z,55.64
2022-10-24T09:14:13.432Z,53.92
2022-10-24T09:15:26.093Z,55.19
2022-10-24T09:16:27.797Z,54.18
2022-10-24T09:17:32.706Z,53.88
2022-10-24T09:18:40.276Z,53.18
2022-10-24T09:19:49.948Z,53.40
2022-10-24T09:20:54.081Z,53.69
2022-10-24T09:21:57.659Z,53.50
2022-10-24T09:23:03.211Z,54.11
2022-10-24T09:24:05.333Z,53.82
2022-10-24T09:25:16.150Z,52.77
2022-10-24T09:26:33.100Z,52.16
2022-10-24T09:27:37.908Z,52.01
2022-10-24T09:28:39.832Z,52.56
2022-10-24T09:29:41.954Z,52.36
2022-10-24T09:30:43.957Z,52.25
2022-10-24T09:31:49.393Z,51.94
2022-10-24T09:32:52.789Z,52.12
2022-10-24T09:33:56.706Z,50.86
2022-10-24T09:35:05.764Z,50.37
2022-10-24T09:36:12.561Z,50.68
2022-10-24T09:37:44.250Z,50.58
2022-10-24T09:38:51.554Z,51.24
2022-10-24T09:40:06.730Z,51.67
2022-10-24T09:41:15.865Z,52.09
2022-10-24T09:42:23.851Z,51.78
2022-10-24T09:43:39.030Z,51.45
2022-10-24T09:44:44.087Z,50.23
2022-10-24T09:45:51.566Z,51.45
2022-10-24T09:46:53.351Z,50.82
2022-10-24T09:48:00.321Z,49.93
2022-10-24T09:49:19.738Z,50.12
2022-10-24T09:50:22.527Z,49.60
2022-10-24T09:51:29.198Z,48.85
2022-10-24T09:52:35.655Z,48.98
2022-10-24T09:53:41.000Z,50.12
2022-10-24T09:54:45.314Z,49.80
2022-10-24T09:55:48.365Z,48.62
2022-10-24T09:57:12.625Z,47.95
2022-10-24T09:58:20.616Z,48.47
2022-10-24T09:59:47.974Z,47.88
2022-10-24T10:01:22.819Z,47.79
2022-10-24T10:02:34.608Z,48.96
2022-10-24T10:03:36.353Z,48.91
2022-10-24T10:04:38.902Z,48.14
2022-10-24T10:05:48.244Z,47.05
2022-10-24T10:06:50.672Z,47.30
2022-10-24T10:07:52.941Z,47.58
2022-10-24T10:08:56.465Z,46.67
2022-10-24T10:10:19.997Z,47.02
2022-10-24T10:11:37.627Z,47.52
2022-10-24T10:12:42.439Z,46.26
2022-10-24T10:13:56.195Z,46.05
2022-10-24T10:14:58.070Z,45.79
2022-10-24T10:16:04.202Z,45.88
2022-10-24T10:17:07.499Z,46.06
2022-10-24T10:18:55.582Z,45.47
2022-10-24T10:19:58.336Z,45.71
2022-10-24T10:21:10.024Z,45.89
2022-10-24T10:22:25.584Z,45.33
2022-10-24T10:23:29.221Z,45.60
2022-10-24T10:24:33.721Z,45.17
2022-10-24T10:25:35.411Z,45.28
2022-10-24T10:26:45.591Z,46.81
2022-10-24T10:27:51.254Z,45.82
2022-10-24T10:29:00.131Z,46.43
2022-10-24T10:30:18.576Z,46.60
2022-10-24T10:31:24.865Z,46.23
2022-10-24T10:32:38.076Z,45.57
2022-10-24T10:33:52.491Z,46.37
2022-10-24T10:35:07.929Z,45.94
2022-10-24T10:36:28.054Z,45.86
2022-10-24T10:37:31.908Z,45.62
2022-10-24T10:38:52.275Z,46.15
2022-10-24T10:40:28.779Z,46.41
2022-10-24T10:41:37.390Z,47.14
2022-10-24T10:42:41.693Z,46.57
2022-10-24T10:43:57.598Z,46.17
2022-10-24T10:45:16.960Z,45.60
2022-10-24T10:47:10.844Z,45.76
2022-10-24T10:48:21.663Z,46.83
2022-10-24T10:49:26.002Z,45.65
2022-10-24T10:50:42.443Z,45.51
2022-10-24T10:52:06.652Z,46.86
2022-10-24T10:53:30.159Z,45.88
2022-10-24T10:54:41.636Z,45.08
2022-10-24T10:55:59.117Z,45.66
2022-10-24T10:57:07.750Z,45.43
2022-10-24T10:58:18.157Z,46.23
2022-10-24T10:59:57.455Z,45.72
2022-10-24T11:01:26.401Z,46.27
2022-10-24T11:02:50.610Z,46.45
2022-10-24T11:04:05.248Z,46.54
2022-10-24T11:05:24.511Z,45.83
2022-10-24T11:06:49.291Z,46.20
2022-10-24T11:08:17.178Z,45.32
2022-10-24T11:09:29.627Z,45.81
2022-10-24T11:10:42.064Z,44.72
2022-10-24T11:11:52.096Z,44.94
2022-10-24T11:12:55.872Z,45.35
2022-10-24T11:14:11.292Z,44.92
2022-10-24T11:15:29.727Z,44.59
2022-10-24T11:16:32.393Z,44.25
2022-10-24T11:17:50.962Z,44.90
2022-10-24T11:18:57.087Z,45.16
2022-10-24T11:20:18.211Z,44.50
2022-10-24T11:21:24.077Z,45.08
2022-10-24T11:22:31.164Z,44.62
2022-10-24T11:23:51.629Z,44.63
2022-10-24T11:25:02.597Z,44.89
2022-10-24T11:26:09.508Z,45.33
2022-10-24T11:28:55.750Z,44.73
2022-10-24T11:30:06.787Z,44.64
2022-10-24T11:31:17.273Z,45.30
2022-10-24T11:32:54.929Z,43.83
2022-10-24T11:34:16.256Z,43.72
2022-10-24T11:35:31.121Z,43.76
2022-10-24T11:36:53.407Z,44.09
2022-10-24T11:38:05.418Z,44.12
2022-10-24T11:39:20.203Z,43.77
2022-10-24T11:40:25.008Z,44.86
2022-10-24T11:41:58.430Z,45.61
2022-10-24T11:43:33.259Z,44.40
2022-10-24T11:44:50.554Z,44.99
2022-10-24T11:46:02.553Z,44.05
2022-10-24T11:47:19.495Z,44.24
2022-10-24T11:48:53.294Z,44.32
2022-10-24T11:49:55.074Z,43.66
2022-10-24T11:51:01.070Z,44.21
2022-10-24T11:52:19.039Z,43.70
2022-10-24T11:53:47.301Z,43.32
2022-10-24T11:54:59.294Z,44.29
2022-10-24T11:56:37.812Z,43.39
2022-10-24T11:57:43.566Z,43.17
2022-10-24T11:59:26.699Z,44.32
2022-10-24T12:00:37.870Z,43.62
2022-10-24T12:01:57.347Z,42.83
2022-10-24T12:03:26.229Z,42.30
2022-10-24T12:05:09.367Z,42.14
2022-10-24T12:06:29.827Z,42.20
2022-10-24T12:07:52.922Z,43.35
2022-10-24T12:09:09.312Z,43.27
2022-10-24T12:10:14.009Z,43.23
2022-10-24T12:11:41.989Z,43.21
2022-10-24T12:12:49.284Z,42.70
2022-10-24T12:14:28.608Z,42.62
2022-10-24T12:15:56.962Z,42.51
2022-10-24T12:17:18.887Z,42.94
2022-10-24T12:18:30.412Z,42.36
2022-10-24T12:19:32.508Z,42.22
2022-10-24T12:20:35.332Z,41.86
2022-10-24T12:21:50.146Z,42.38
2022-10-24T12:22:53.938Z,42.26
2022-10-24T12:23:59.050Z,43.22
2022-10-24T12:25:10.931Z,42.93
2022-10-24T12:26:24.232Z,42.44
2022-10-24T12:27:39.690Z,42.03
2022-10-24T12:28:43.490Z,41.82
2022-10-24T12:29:45.070Z,41.34
2022-10-24T12:31:22.278Z,41.85
2022-10-24T12:32:42.383Z,41.70
2022-10-24T12:34:04.959Z,40.96
2022-10-24T12:35:49.441Z,41.47
2022-10-24T12:37:18.680Z,41.59
2022-10-24T12:38:29.488Z,41.63
2022-10-24T12:39:37.490Z,42.04
2022-10-24T12:40:45.383Z,41.40
2022-10-24T12:41:47.194Z,40.77
2022-10-24T12:42:51.999Z,41.09
2022-10-24T12:44:37.103Z,41.07
2022-10-24T12:45:38.918Z,40.10
2022-10-24T12:46:40.404Z,40.18
2022-10-24T12:48:02.770Z,40.16
2022-10-24T12:49:10.447Z,39.83
2022-10-24T12:50:23.726Z,40.27
2022-10-24T12:51:38.123Z,39.82
2022-10-24T12:52:45.888Z,41.03
2022-10-24T12:54:06.026Z,40.30
2022-10-24T12:55:39.475Z,39.30
2022-10-24T12:56:51.242Z,40.42
2022-10-24T12:57:53.153Z,39.85
2022-10-24T12:59:16.103Z,39.35
2022-10-24T13:00:30.186Z,39.23
2022-10-24T13:01:36.626Z,39.47
2022-10-24T13:02:47.785Z,39.04
2022-10-24T13:03:53.485Z,39.61
2022-10-24T13:05:33.631Z,39.96
2022-10-24T13:06:50.257Z,39.73
2022-10-24T13:08:13.491Z,39.09
2022-10-24T13:09:30.861Z,38.90
2022-10-24T13:11:03.147Z,38.66
2022-10-24T13:12:28.526Z,39.35
2022-10-24T13:13:39.406Z,39.16
2022-10-24T13:14:43.471Z,39.65
2022-10-24T13:16:12.905Z,39.55
2022-10-24T13:17:40.248Z,40.10
2022-10-24T13:19:03.931Z,38.46
2022-10-24T13:20:18.383Z,38.72
2022-10-24T13:21:51.956Z,38.45
2022-10-24T13:23:12.320Z,38.74
2022-10-24T13:24:16.719Z,38.58
2022-10-24T13:25:36.667Z,39.21
2022-10-24T13:26:45.575Z,38.99
2022-10-24T13:28:25.294Z,38.04
2022-10-24T13:29:30.978Z,38.42
2022-10-24T13:30:40.034Z,39.68
2022-10-24T13:31:55.002Z,39.95
2022-10-24T13:33:33.984Z,38.64
2022-10-24T13:34:48.985Z,37.95
2022-10-24T13:35:51.555Z,38.46
2022-10-24T13:37:24.449Z,37.90
2022-10-24T13:38:26.564Z,38.44
2022-10-24T13:39:41.325Z,39.28
2022-10-24T13:40:46.118Z,39.74
2022-10-24T13:41:58.654Z,39.17
2022-10-24T13:43:07.550Z,39.14
2022-10-24T13:44:12.197Z,38.80
2022-10-24T13:45:28.846Z,38.07
2022-10-24T13:46:54.360Z,38.33
2022-10-24T13:48:12.101Z,38.00
2022-10-24T13:49:27.731Z,38.20
2022-10-24T13:50:33.944Z,38.86
2022-10-24T13:51:45.906Z,39.25
2022-10-24T13:53:00.542Z,39.36
2022-10-24T13:54:21.169Z,38.28
2022-10-24T13:55:33.458Z,38.53
2022-10-24T13:56:41.421Z,39.37
2022-10-24T13:57:55.571Z,39.10
2022-10-24T13:58:57.206Z,38.77
2022-10-24T14:00:02.587Z,38.15
2022-10-24T14:01:37.670Z,38.42
2022-10-24T14:02:45.874Z,38.95
2022-10-24T14:03:49.243Z,39.48
2022-10-24T14:04:54.734Z,38.88
2022-10-24T14:06:03.616Z,38.29
2022-10-24T14:07:09.560Z,38.52
2022-10-24T14:08:28.547Z,38.22
2022-10-24T14:09:30.930Z,38.04
2022-10-24T14:10:32.877Z,38.59
2022-10-24T14:11:39.607Z,39.83
2022-10-24T14:12:41.775Z,38.98
2022-10-24T14:13:48.896Z,39.11
2022-10-24T14:14:52.849Z,39.49
2022-10-24T14:16:04.281Z,39.76
2022-10-24T14:17:26.390Z,39.49
2022-10-24T14:18:28.241Z,39.58
2022-10-24T14:19:36.186Z,39.65
2022-10-24T14:20:39.036Z,39.65
2022-10-24T14:21:43.412Z,39.58
2022-10-24T14:22:45.212Z,39.29
2022-10-24T14:23:58.360Z,39.48
2022-10-24T14:25:00.202Z,39.87
2022-10-24T14:26:08.688Z,39.94
2022-10-24T14:27:13.473Z,40.01
2022-10-24T14:28:17.371Z,39.29
2022-10-24T14:29:27.768Z,39.90
2022-10-24T14:30:34.271Z,39.87
2022-10-24T14:31:37.192Z,39.64
2022-10-24T14:32:39.362Z,39.85
2022-10-24T14:33:50.497Z,39.86
2022-10-24T14:34:55.556Z,39.23